createdAt,value
2023-09-27T00:00:37.917Z,18.80
2023-09-27T00:03:32.908Z,20.14
2023-09-27T00:06:19.551Z,20.99
2023-09-27T00:09:09.239Z,21.07
2023-09-27T00:11:56.276Z,19.93
2023-09-27T00:14:42.835Z,18.95
2023-09-27T00:17:30.498Z,18.31
2023-09-27T00:20:17.605Z,19.33
2023-09-27T00:23:04.743Z,20.53
2023-09-27T00:25:51.895Z,21.22
2023-09-27T00:28:38.586Z,21.17
2023-09-27T00:31:25.352Z,19.96
2023-09-27T00:34:12.077Z,18.94
2023-09-27T00:36:58.872Z,18.75
2023-09-27T00:39:45.565Z,20.09
2023-09-27T00:42:32.137Z,20.99
2023-09-27T00:45:19.494Z,21.05
2023-09-27T00:48:06.630Z,19.91
2023-09-27T00:50:54.536Z,18.89
2023-09-27T00:53:43.872Z,18.12
2023-09-27T00:56:30.953Z,18.24
2023-09-27T00:59:18.897Z,19.69
2023-09-27T01:02:07.060Z,20.61
2023-09-27T01:04:54.034Z,21.09
2023-09-27T01:07:41.717Z,21.06
2023-09-27T01:10:29.574Z,19.90
2023-09-27T01:13:16.577Z,18.89
2023-09-27T01:16:03.182Z,18.69
2023-09-27T01:18:49.980Z,20.00
2023-09-27T01:21:36.782Z,20.90
2023-09-27T01:24:23.680Z,21.01
2023-09-27T01:27:10.782Z,19.88
2023-09-27T01:29:58.406Z,18.82
2023-09-27T01:32:45.090Z,18.03
2023-09-27T01:35:32.716Z,18.11
2023-09-27T01:38:19.769Z,19.54
2023-09-27T01:41:06.530Z,20.53
2023-09-27T01:43:52.779Z,21.11
2023-09-27T01:46:39.929Z,20.98
2023-09-27T01:49:27.242Z,19.76
2023-09-27T01:52:14.012Z,18.78
2023-09-27T01:55:00.798Z,18.54
2023-09-27T01:57:48.194Z,19.86
2023-09-27T02:00:34.815Z,20.79
2023-09-27T02:03:21.394Z,20.98
2023-09-27T02:06:07.958Z,19.87
2023-09-27T02:08:54.766Z,18.81
2023-09-27T02:11:41.688Z,18.01
2023-09-27T02:14:28.843Z,18.13
2023-09-27T02:17:15.897Z,19.62
2023-09-27T02:20:08.839Z,20.61
2023-09-27T02:22:56.012Z,20.72
2023-09-27T02:25:43.040Z,19.56
2023-09-27T02:28:29.580Z,18.54
2023-09-27T02:31:16.486Z,17.79
2023-09-27T02:34:02.969Z,17.89
2023-09-27T02:36:50.078Z,19.46
2023-09-27T02:39:36.479Z,20.50
2023-09-27T02:42:23.021Z,21.04
2023-09-27T02:45:11.533Z,20.36
2023-09-27T02:48:00.022Z,19.23
2023-09-27T02:50:50.664Z,18.37
2023-09-27T02:53:37.334Z,18.41
2023-09-27T02:56:24.817Z,19.92
2023-09-27T02:59:12.559Z,20.96
2023-09-27T03:01:59.872Z,21.54
2023-09-27T03:04:48.685Z,21.56
2023-09-27T03:07:35.479Z,20.38
2023-09-27T03:10:22.162Z,19.36
2023-09-27T03:13:10.854Z,19.17
2023-09-27T03:15:58.457Z,20.51
2023-09-27T03:18:45.087Z,21.42
2023-09-27T03:21:32.186Z,21.93
2023-09-27T03:24:19.205Z,21.86
2023-09-27T03:27:06.159Z,20.64
2023-09-27T03:29:52.914Z,19.58
2023-09-27T03:32:39.614Z,19.35
2023-09-27T03:35:26.491Z,20.61
2023-09-27T03:38:13.060Z,21.52
2023-09-27T03:40:59.652Z,22.03
2023-09-27T03:43:47.608Z,21.95
2023-09-27T03:46:34.022Z,20.74
2023-09-27T03:49:21.442Z,19.69
2023-09-27T03:52:09.190Z,19.45
2023-09-27T03:54:56.397Z,20.71
2023-09-27T03:57:42.966Z,21.60
2023-09-27T04:00:29.800Z,22.05
2023-09-27T04:03:17.785Z,21.96
2023-09-27T04:06:05.000Z,20.76
2023-09-27T04:08:52.704Z,19.67
2023-09-27T04:11:39.654Z,19.44
2023-09-27T04:14:26.074Z,20.72
2023-09-27T04:17:12.503Z,21.57
2023-09-27T04:19:59.256Z,22.01
2023-09-27T04:22:48.461Z,21.93
2023-09-27T04:25:34.992Z,20.66
2023-09-27T04:28:21.613Z,19.57
2023-09-27T04:31:08.412Z,19.37
2023-09-27T04:33:54.620Z,20.61
2023-09-27T04:36:41.622Z,21.49
2023-09-27T04:39:32.315Z,22.00
2023-09-27T04:42:18.721Z,21.86
2023-09-27T04:45:06.302Z,20.65
2023-09-27T04:47:53.491Z,19.60
2023-09-27T04:50:41.189Z,19.44
2023-09-27T04:53:28.087Z,20.76
2023-09-27T04:56:14.671Z,21.66
2023-09-27T04:59:02.960Z,22.15
2023-09-27T05:01:49.416Z,22.02
2023-09-27T05:04:36.544Z,20.81
2023-09-27T05:07:24.007Z,19.74
2023-09-27T05:10:11.044Z,19.57
2023-09-27T05:12:58.002Z,20.89
2023-09-27T05:15:50.804Z,21.77
2023-09-27T05:18:37.467Z,22.25
2023-09-27T05:21:24.154Z,22.16
2023-09-27T05:24:10.950Z,20.99
2023-09-27T05:27:00.603Z,19.98
2023-09-27T05:29:48.166Z,19.85
2023-09-27T05:32:34.732Z,21.15
2023-09-27T05:35:21.818Z,22.04
2023-09-27T05:38:08.382Z,22.52
2023-09-27T05:40:55.095Z,22.45
2023-09-27T05:43:41.715Z,21.29
2023-09-27T05:46:30.090Z,20.30
2023-09-27T05:49:18.134Z,20.16
2023-09-27T05:52:04.868Z,21.44
2023-09-27T05:54:52.668Z,22.31
2023-09-27T05:57:39.922Z,22.78
2023-09-27T06:00:28.500Z,22.48
2023-09-27T06:03:15.517Z,21.24
2023-09-27T06:06:04.636Z,20.26
2023-09-27T06:08:52.930Z,20.12
2023-09-27T06:11:40.034Z,21.40
2023-09-27T06:14:26.440Z,22.27
2023-09-27T06:17:17.309Z,22.71
2023-09-27T06:20:13.393Z,22.59
2023-09-27T06:23:04.873Z,21.32
2023-09-27T06:25:52.455Z,20.22
2023-09-27T06:28:39.637Z,20.10
2023-09-27T06:31:26.311Z,21.42
2023-09-27T06:34:12.728Z,22.35
2023-09-27T06:36:59.656Z,22.89
2023-09-27T06:39:46.023Z,22.87
2023-09-27T06:42:32.433Z,21.73
2023-09-27T06:45:19.791Z,20.75
2023-09-27T06:48:06.581Z,20.66
2023-09-27T06:50:53.404Z,21.99
2023-09-27T06:53:39.883Z,22.83
2023-09-27T06:56:26.693Z,23.03
2023-09-27T06:59:13.315Z,22.09
2023-09-27T07:02:00.485Z,21.21
2023-09-27T07:04:47.649Z,21.16
2023-09-27T07:07:34.760Z,22.54
2023-09-27T07:10:22.797Z,23.44
2023-09-27T07:13:09.714Z,23.46
2023-09-27T07:15:56.111Z,22.43
2023-09-27T07:18:43.565Z,21.62
2023-09-27T07:21:31.683Z,21.57
2023-09-27T07:24:18.473Z,22.79
2023-09-27T07:27:05.091Z,23.59
2023-09-27T07:29:52.672Z,23.06
2023-09-27T07:32:40.896Z,22.09
2023-09-27T07:35:33.817Z,21.96
2023-09-27T07:38:20.344Z,23.26
2023-09-27T07:41:11.782Z,23.84
2023-09-27T07:43:58.641Z,22.97
2023-09-27T07:46:45.898Z,22.15
2023-09-27T07:49:32.609Z,22.08
2023-09-27T07:52:19.151Z,23.50
2023-09-27T07:55:06.681Z,24.21
2023-09-27T07:57:54.212Z,23.37
2023-09-27T08:00:41.863Z,22.48
2023-09-27T08:03:29.274Z,22.38
2023-09-27T08:06:17.825Z,23.73
2023-09-27T08:09:08.303Z,24.72
2023-09-27T08:11:56.169Z,24.55
2023-09-27T08:14:43.248Z,23.65
2023-09-27T08:17:31.189Z,23.00
2023-09-27T08:20:20.004Z,23.12
2023-09-27T08:23:07.194Z,24.67
2023-09-27T08:25:54.424Z,25.37
2023-09-27T08:28:41.166Z,24.63
2023-09-27T08:31:27.918Z,23.90
2023-09-27T08:34:14.710Z,23.47
2023-09-27T08:37:01.783Z,23.74
2023-09-27T08:39:48.858Z,25.28
2023-09-27T08:42:35.479Z,25.65
2023-09-27T08:45:24.099Z,24.91
2023-09-27T08:48:13.420Z,24.31
2023-09-27T08:51:05.968Z,23.90
2023-09-27T08:53:52.411Z,23.68
2023-09-27T08:56:39.708Z,24.80
2023-09-27T08:59:26.565Z,26.05
2023-09-27T09:02:15.156Z,25.67
2023-09-27T09:05:05.250Z,24.92
2023-09-27T09:07:52.098Z,24.42
2023-09-27T09:10:39.277Z,24.10
2023-09-27T09:13:25.793Z,24.39
2023-09-27T09:16:16.013Z,25.93
2023-09-27T09:19:29.253Z,26.59
2023-09-27T09:22:28.919Z,25.82
2023-09-27T09:25:15.305Z,25.34
2023-09-27T09:28:14.210Z,24.94
2023-09-27T09:31:01.022Z,24.64
2023-09-27T09:34:04.007Z,24.44
2023-09-27T09:36:52.960Z,25.06
2023-09-27T09:39:39.712Z,26.62
2023-09-27T09:42:33.951Z,26.50
2023-09-27T09:45:21.402Z,25.82
2023-09-27T09:48:08.167Z,25.34
2023-09-27T09:51:04.479Z,25.07
2023-09-27T09:53:52.948Z,24.94
2023-09-27T09:56:53.277Z,24.83
2023-09-27T09:59:59.017Z,24.79
2023-09-27T10:02:59.678Z,24.94
2023-09-27T10:05:46.925Z,26.51
2023-09-27T10:08:39.806Z,27.46
2023-09-27T10:11:27.495Z,27.03
2023-09-27T10:14:15.758Z,26.60
2023-09-27T10:17:02.337Z,26.35
2023-09-27T10:20:14.993Z,26.20
2023-09-27T10:23:11.872Z,26.07
2023-09-27T10:26:19.963Z,26.00
2023-09-27T10:32:43.723Z,26.04
2023-09-27T10:35:30.403Z,26.06
2023-09-27T10:38:17.182Z,26.11
2023-09-27T10:41:04.616Z,26.12
2023-09-27T10:43:51.553Z,26.09
2023-09-27T10:46:42.282Z,26.08
2023-09-27T10:49:40.023Z,26.12
2023-09-27T10:52:28.139Z,26.20
2023-09-27T10:55:15.661Z,26.26
2023-09-27T10:58:02.373Z,26.30
2023-09-27T11:01:05.003Z,26.33
2023-09-27T11:04:05.063Z,26.32
2023-09-27T11:06:53.221Z,26.34
2023-09-27T11:09:46.013Z,26.35
2023-09-27T11:12:32.701Z,26.35
2023-09-27T11:15:25.350Z,26.40
2023-09-27T11:18:12.908Z,26.45
2023-09-27T11:21:11.634Z,26.49
2023-09-27T11:24:00.337Z,26.54
2023-09-27T11:26:47.162Z,26.62
2023-09-27T11:29:33.926Z,26.71
2023-09-27T11:32:21.706Z,26.79
2023-09-27T11:35:09.185Z,26.91
2023-09-27T11:38:14.628Z,27.05
2023-09-27T11:41:07.756Z,27.22
2023-09-27T11:43:54.841Z,27.40
2023-09-27T11:46:41.838Z,27.72
2023-09-27T11:49:28.287Z,28.11
2023-09-27T11:52:14.860Z,28.56
2023-09-27T11:55:01.265Z,28.98
2023-09-27T11:57:48.038Z,29.36
2023-09-27T12:00:34.146Z,29.70
2023-09-27T12:03:20.809Z,29.98
2023-09-27T12:06:08.497Z,30.22
2023-09-27T12:08:55.878Z,30.31
2023-09-27T12:11:43.045Z,30.31
2023-09-27T12:14:29.684Z,30.35
2023-09-27T12:17:19.484Z,30.41
2023-09-27T12:20:09.229Z,30.48
2023-09-27T12:22:59.886Z,30.57
2023-09-27T12:25:46.460Z,30.78
2023-09-27T12:28:35.126Z,31.16
2023-09-27T12:31:22.874Z,31.45
2023-09-27T12:34:09.301Z,31.72
2023-09-27T12:36:56.226Z,32.01
2023-09-27T12:39:43.142Z,32.34
2023-09-27T12:42:29.887Z,32.81
2023-09-27T12:45:16.152Z,33.17
2023-09-27T12:48:02.767Z,33.38
2023-09-27T12:50:49.815Z,33.55
2023-09-27T12:53:36.862Z,33.79
2023-09-27T12:56:23.741Z,33.95
2023-09-27T12:59:10.537Z,34.26
2023-09-27T13:01:57.143Z,34.55
2023-09-27T13:04:44.680Z,34.67
2023-09-27T13:07:31.345Z,34.85
2023-09-27T13:10:18.385Z,35.19
2023-09-27T13:13:04.804Z,35.73
2023-09-27T13:15:51.287Z,36.40
2023-09-27T13:18:38.033Z,36.85
2023-09-27T13:21:26.005Z,37.13
2023-09-27T13:24:13.866Z,37.06
2023-09-27T13:27:00.648Z,37.19
2023-09-27T13:29:47.375Z,37.50
2023-09-27T13:32:35.020Z,37.48
2023-09-27T13:35:22.655Z,36.89
2023-09-27T13:38:11.868Z,36.63
2023-09-27T13:40:59.612Z,36.96
2023-09-27T13:43:46.444Z,37.31
2023-09-27T13:46:33.090Z,37.80
2023-09-27T13:49:19.766Z,38.13
2023-09-27T13:52:06.842Z,37.89
2023-09-27T13:54:53.868Z,36.88
2023-09-27T13:57:41.117Z,36.53
2023-09-27T14:00:27.736Z,37.18
2023-09-27T14:03:15.181Z,37.41
2023-09-27T14:06:01.950Z,37.61
2023-09-27T14:08:48.956Z,37.91
2023-09-27T14:11:36.923Z,38.31
2023-09-27T14:14:23.805Z,38.61
2023-09-27T14:17:10.562Z,38.54
2023-09-27T14:19:57.059Z,38.24
2023-09-27T14:22:45.273Z,38.42
2023-09-27T14:25:33.424Z,38.82
2023-09-27T14:28:20.095Z,39.17
2023-09-27T14:31:06.949Z,39.41
2023-09-27T14:33:54.006Z,39.34
2023-09-27T14:36:41.316Z,39.35
2023-09-27T14:39:28.874Z,39.61
2023-09-27T14:42:15.414Z,39.69
2023-09-27T14:45:02.893Z,39.89
2023-09-27T14:47:53.139Z,40.18
2023-09-27T14:50:39.671Z,40.31
2023-09-27T14:53:26.381Z,40.14
2023-09-27T14:56:14.205Z,40.01
2023-09-27T14:59:02.510Z,39.91
2023-09-27T15:01:49.538Z,40.09
2023-09-27T15:04:36.425Z,40.20
2023-09-27T15:07:23.466Z,40.25
2023-09-27T15:10:11.326Z,40.26
2023-09-27T15:12:57.733Z,40.29
2023-09-27T15:15:45.066Z,40.16
2023-09-27T15:18:32.380Z,39.69
2023-09-27T15:21:19.179Z,39.15
2023-09-27T15:24:05.691Z,38.73
2023-09-27T15:26:54.669Z,38.49
2023-09-27T15:29:41.263Z,38.22
2023-09-27T15:32:27.998Z,37.98
2023-09-27T15:35:15.484Z,37.61
2023-09-27T15:38:02.265Z,37.14
2023-09-27T15:40:49.330Z,36.33
2023-09-27T15:43:36.664Z,35.39
2023-09-27T15:46:24.505Z,34.40
2023-09-27T15:49:11.275Z,33.53
2023-09-27T15:51:58.727Z,32.73
2023-09-27T15:54:45.374Z,32.03
2023-09-27T15:57:32.611Z,31.40
2023-09-27T16:00:19.002Z,30.79
2023-09-27T16:03:05.726Z,30.27
2023-09-27T16:05:53.142Z,29.83
2023-09-27T16:08:39.846Z,29.44
2023-09-27T16:11:30.943Z,29.07
2023-09-27T16:14:17.267Z,28.70
2023-09-27T16:17:03.791Z,28.36
2023-09-27T16:25:11.455Z,27.48
2023-09-27T16:28:16.308Z,27.02
2023-09-27T16:31:21.795Z,26.66
2023-09-27T16:34:08.988Z,26.34
2023-09-27T16:36:58.462Z,26.04
2023-09-27T16:39:45.622Z,25.77
2023-09-27T16:42:32.781Z,25.51
2023-09-27T16:45:19.805Z,25.27
2023-09-27T16:48:07.060Z,25.02
2023-09-27T16:50:54.108Z,24.79
2023-09-27T16:53:41.053Z,24.60
2023-09-27T16:56:28.173Z,24.44
2023-09-27T16:59:16.860Z,24.27
2023-09-27T17:02:04.567Z,24.09
2023-09-27T17:04:51.607Z,23.92
2023-09-27T17:07:39.482Z,23.79
2023-09-27T17:10:26.306Z,23.68
2023-09-27T17:13:13.506Z,23.57
2023-09-27T17:16:00.678Z,23.46
2023-09-27T17:18:48.352Z,23.35
2023-09-27T17:21:35.694Z,23.25
2023-09-27T17:24:23.311Z,23.12
2023-09-27T17:27:10.434Z,23.00
2023-09-27T17:29:58.067Z,22.92
2023-09-27T17:32:45.704Z,22.83
2023-09-27T17:35:32.707Z,22.73
2023-09-27T17:38:20.217Z,22.64
2023-09-27T17:41:08.962Z,22.54
2023-09-27T17:43:56.251Z,22.45
2023-09-27T17:46:43.828Z,22.38
2023-09-27T17:49:30.886Z,22.28
2023-09-27T17:52:17.912Z,22.20
2023-09-27T17:55:06.070Z,22.13
2023-09-27T17:57:53.503Z,22.49
2023-09-27T18:00:41.777Z,24.19
2023-09-27T18:03:29.590Z,25.33
2023-09-27T18:06:16.666Z,25.64
2023-09-27T18:09:04.027Z,24.84
2023-09-27T18:11:50.631Z,24.10
2023-09-27T18:14:38.438Z,23.59
2023-09-27T18:17:26.018Z,23.20
2023-09-27T18:20:13.259Z,22.90
2023-09-27T18:23:00.415Z,22.64
2023-09-27T18:25:48.396Z,22.40
2023-09-27T18:28:34.823Z,22.15
2023-09-27T18:31:22.223Z,21.94
2023-09-27T18:34:09.205Z,22.25
2023-09-27T18:36:56.022Z,23.86
2023-09-27T18:39:42.379Z,24.83
2023-09-27T18:42:29.381Z,25.10
2023-09-27T18:45:16.093Z,24.24
2023-09-27T18:48:09.226Z,23.44
2023-09-27T18:50:57.151Z,22.89
2023-09-27T18:53:43.777Z,22.51
2023-09-27T18:56:30.245Z,22.20
2023-09-27T18:59:17.233Z,21.92
2023-09-27T19:02:04.023Z,21.64
2023-09-27T19:04:51.127Z,21.93
2023-09-27T19:07:37.622Z,23.50
2023-09-27T19:10:25.030Z,24.15
2023-09-27T19:13:11.303Z,23.40
2023-09-27T19:15:58.020Z,22.63
2023-09-27T19:18:44.942Z,22.10
2023-09-27T19:21:31.432Z,21.72
2023-09-27T19:24:18.164Z,21.91
2023-09-27T19:27:05.587Z,23.45
2023-09-27T19:29:52.413Z,24.17
2023-09-27T19:32:38.921Z,23.42
2023-09-27T19:35:25.749Z,22.64
2023-09-27T19:38:13.236Z,22.07
2023-09-27T19:40:59.993Z,21.64
2023-09-27T19:43:46.876Z,21.74
2023-09-27T19:46:33.816Z,23.18
2023-09-27T19:49:20.694Z,24.16
2023-09-27T19:52:07.603Z,24.35
2023-09-27T19:54:54.164Z,23.37
2023-09-27T19:57:40.907Z,22.49
2023-09-27T20:00:27.668Z,21.88
2023-09-27T20:03:14.426Z,21.40
2023-09-27T20:06:03.424Z,21.49
2023-09-27T20:08:51.396Z,22.90
2023-09-27T20:11:38.627Z,23.90
2023-09-27T20:14:25.415Z,24.12
2023-09-27T20:17:12.356Z,23.17
2023-09-27T20:19:59.225Z,22.29
2023-09-27T20:22:46.172Z,21.65
2023-09-27T20:25:33.249Z,21.17
2023-09-27T20:28:19.938Z,21.23
2023-09-27T20:31:06.247Z,22.66
2023-09-27T20:33:53.473Z,23.66
2023-09-27T20:36:40.506Z,23.84
2023-09-27T20:39:27.112Z,22.83
2023-09-27T20:42:15.637Z,21.89
2023-09-27T20:45:02.189Z,21.20
2023-09-27T20:47:50.423Z,20.67
2023-09-27T20:50:37.696Z,20.80
2023-09-27T20:53:25.606Z,22.16
2023-09-27T20:56:12.285Z,22.60
2023-09-27T20:58:58.952Z,21.69
2023-09-27T21:01:47.431Z,20.87
2023-09-27T21:04:34.107Z,20.28
2023-09-27T21:07:20.999Z,20.46
2023-09-27T21:10:08.470Z,21.89
2023-09-27T21:12:54.714Z,22.78
2023-09-27T21:15:41.813Z,23.30
2023-09-27T21:18:28.330Z,22.92
2023-09-27T21:21:15.528Z,21.79
2023-09-27T21:24:01.852Z,20.92
2023-09-27T21:26:48.445Z,20.30
2023-09-27T21:29:37.500Z,20.33
2023-09-27T21:32:23.942Z,21.75
2023-09-27T21:35:11.955Z,22.75
2023-09-27T21:37:59.163Z,22.97
2023-09-27T21:40:52.801Z,21.97
2023-09-27T21:43:40.358Z,20.95
2023-09-27T21:46:27.518Z,20.28
2023-09-27T21:49:14.406Z,20.85
2023-09-27T21:52:00.830Z,22.02
2023-09-27T21:54:47.165Z,22.33
2023-09-27T21:57:33.839Z,21.31
2023-09-27T22:00:29.167Z,20.37
2023-09-27T22:03:18.532Z,19.69
2023-09-27T22:06:06.855Z,20.46
2023-09-27T22:08:54.628Z,21.78
2023-09-27T22:11:42.019Z,22.46
2023-09-27T22:14:28.553Z,22.41
2023-09-27T22:17:16.964Z,21.37
2023-09-27T22:20:20.213Z,20.42
2023-09-27T22:23:06.829Z,19.68
2023-09-27T22:25:55.051Z,19.72
2023-09-27T22:28:41.906Z,21.07
2023-09-27T22:31:31.539Z,21.96
2023-09-27T22:34:24.799Z,22.12
2023-09-27T22:37:11.666Z,21.01
2023-09-27T22:40:14.784Z,20.06
2023-09-27T22:43:06.524Z,19.26
2023-09-27T22:45:53.762Z,19.52
2023-09-27T22:48:40.449Z,20.93
2023-09-27T22:51:27.154Z,21.85
2023-09-27T22:54:15.889Z,22.04
2023-09-27T22:57:02.448Z,20.99
2023-09-27T22:59:49.668Z,20.03
2023-09-27T23:02:36.284Z,19.31
2023-09-27T23:05:41.272Z,19.79
2023-09-27T23:08:27.768Z,21.22
2023-09-27T23:11:14.386Z,21.98
2023-09-27T23:14:06.539Z,21.93
2023-09-27T23:17:13.374Z,20.75
2023-09-27T23:20:01.917Z,19.61
2023-09-27T23:22:58.564Z,19.44
2023-09-27T23:25:46.176Z,20.77
2023-09-27T23:28:41.637Z,21.70
2023-09-27T23:31:31.026Z,21.81
2023-09-27T23:34:17.671Z,20.72
2023-09-27T23:37:15.330Z,19.77
2023-09-27T23:40:02.464Z,19.02
2023-09-27T23:42:49.428Z,19.06
2023-09-27T23:45:36.061Z,20.39
2023-09-27T23:48:24.810Z,21.19
2023-09-27T23:51:11.626Z,20.85
2023-09-27T23:54:00.503Z,19.75
2023-09-27T23:56:47.270Z,18.87
2023-09-27T23:59:34.718Z,18.90
